sensor_id;sensor_type;location;lat;lon;timestamp;pressure;altitude;pressure_sealevel;temperature;humidity
62833;BME280;48891;49.220;6.920;2023-07-29T00:02:16;98408.34;;;21.59;57.35
62833;BME280;48891;49.220;6.920;2023-07-29T00:04:41;98411.88;;;21.60;57.30
62833;BME280;48891;49.220;6.920;2023-07-29T00:07:07;98405.50;;;21.61;56.97
62833;BME280;48891;49.220;6.920;2023-07-29T00:09:32;98411.69;;;21.61;57.02
62833;BME280;48891;49.220;6.920;2023-07-29T00:11:57;98419.75;;;21.61;57.01
62833;BME280;48891;49.220;6.920;2023-07-29T00:14:22;98401.13;;;21.60;56.99
62833;BME280;48891;49.220;6.920;2023-07-29T00:16:48;98401.13;;;21.60;57.28
62833;BME280;48891;49.220;6.920;2023-07-29T00:19:13;98402.00;;;21.60;57.41
62833;BME280;48891;49.220;6.920;2023-07-29T00:21:38;98400.16;;;21.61;57.40
62833;BME280;48891;49.220;6.920;2023-07-29T00:24:03;98398.44;;;21.60;57.46
62833;BME280;48891;49.220;6.920;2023-07-29T00:26:29;98373.81;;;21.48;57.50
62833;BME280;48891;49.220;6.920;2023-07-29T00:28:58;98388.59;;;21.60;57.45
62833;BME280;48891;49.220;6.920;2023-07-29T00:31:23;98388.59;;;21.60;56.96
62833;BME280;48891;49.220;6.920;2023-07-29T00:33:48;98385.91;;;21.60;57.16
62833;BME280;48891;49.220;6.920;2023-07-29T00:36:13;98386.06;;;21.59;57.53
62833;BME280;48891;49.220;6.920;2023-07-29T00:38:39;98387.72;;;21.60;57.48
62833;BME280;48891;49.220;6.920;2023-07-29T00:41:04;98384.22;;;21.59;57.59
62833;BME280;48891;49.220;6.920;2023-07-29T00:43:30;98387.56;;;21.61;57.24
62833;BME280;48891;49.220;6.920;2023-07-29T00:45:55;98378.84;;;21.59;57.24
62833;BME280;48891;49.220;6.920;2023-07-29T00:48:21;98384.38;;;21.58;57.38
62833;BME280;48891;49.220;6.920;2023-07-29T00:50:46;98389.41;;;21.61;57.50
62833;BME280;48891;49.220;6.920;2023-07-29T00:53:11;98396.63;;;21.60;57.15
62833;BME280;48891;49.220;6.920;2023-07-29T00:55:37;98388.59;;;21.60;57.10
62833;BME280;48891;49.220;6.920;2023-07-29T00:58:02;98396.63;;;21.60;57.19
62833;BME280;48891;49.220;6.920;2023-07-29T01:00:28;98393.94;;;21.60;57.17
62833;BME280;48891;49.220;6.920;2023-07-29T01:02:53;98394.94;;;21.59;57.18
62833;BME280;48891;49.220;6.920;2023-07-29T01:05:18;98394.94;;;21.59;57.25
62833;BME280;48891;49.220;6.920;2023-07-29T01:08:15;98381.38;;;21.61;57.07
62833;BME280;48891;49.220;6.920;2023-07-29T01:10:55;98386.72;;;21.61;57.32
62833;BME280;48891;49.220;6.920;2023-07-29T01:13:37;98380.53;;;21.60;57.20
62833;BME280;48891;49.220;6.920;2023-07-29T01:16:11;98384.22;;;21.59;57.30
62833;BME280;48891;49.220;6.920;2023-07-29T01:18:40;98382.19;;;21.61;57.26
62833;BME280;48891;49.220;6.920;2023-07-29T01:21:08;98366.94;;;21.54;57.39
62833;BME280;48891;49.220;6.920;2023-07-29T01:23:34;98365.44;;;21.59;57.49
62833;BME280;48891;49.220;6.920;2023-07-29T01:26:00;98373.31;;;21.61;57.47
62833;BME280;48891;49.220;6.920;2023-07-29T01:28:26;98359.09;;;21.60;57.33
62833;BME280;48891;49.220;6.920;2023-07-29T01:31:03;98361.75;;;21.60;57.33
62833;BME280;48891;49.220;6.920;2023-07-29T01:33:37;98360.75;;;21.61;57.12
62833;BME280;48891;49.220;6.920;2023-07-29T01:36:19;98364.44;;;21.60;57.42
62833;BME280;48891;49.220;6.920;2023-07-29T01:38:47;98370.63;;;21.61;57.09
62833;BME280;48891;49.220;6.920;2023-07-29T01:41:13;98365.44;;;21.59;57.71
62833;BME280;48891;49.220;6.920;2023-07-29T01:43:39;98360.06;;;21.59;57.55
62833;BME280;48891;49.220;6.920;2023-07-29T01:46:05;98359.09;;;21.60;57.55
62833;BME280;48891;49.220;6.920;2023-07-29T01:48:30;98358.41;;;21.58;57.39
62833;BME280;48891;49.220;6.920;2023-07-29T01:50:56;98364.44;;;21.60;57.16
62833;BME280;48891;49.220;6.920;2023-07-29T01:53:21;98353.72;;;21.60;57.42
62833;BME280;48891;49.220;6.920;2023-07-29T01:55:46;98353.72;;;21.60;57.25
62833;BME280;48891;49.220;6.920;2023-07-29T01:58:11;98341.28;;;21.59;57.49
62833;BME280;48891;49.220;6.920;2023-07-29T02:00:37;98336.25;;;21.56;57.49
62833;BME280;48891;49.220;6.920;2023-07-29T02:03:02;98342.13;;;21.60;57.15
62833;BME280;48891;49.220;6.920;2023-07-29T02:05:27;98336.97;;;21.58;57.24
62833;BME280;48891;49.220;6.920;2023-07-29T02:07:52;98341.13;;;21.61;57.33
62833;BME280;48891;49.220;6.920;2023-07-29T02:10:18;98341.28;;;21.59;57.28
62833;BME280;48891;49.220;6.920;2023-07-29T02:12:43;98340.31;;;21.60;57.30
62833;BME280;48891;49.220;6.920;2023-07-29T02:15:08;98330.56;;;21.59;57.24
62833;BME280;48891;49.220;6.920;2023-07-29T02:17:34;98327.06;;;21.59;57.41
62833;BME280;48891;49.220;6.920;2023-07-29T02:19:59;98329.56;;;21.60;57.22
62833;BME280;48891;49.220;6.920;2023-07-29T02:22:24;98327.06;;;21.59;57.23
62833;BME280;48891;49.220;6.920;2023-07-29T02:24:49;98340.47;;;21.59;57.13
62833;BME280;48891;49.220;6.920;2023-07-29T02:27:15;98343.00;;;21.60;57.17
62833;BME280;48891;49.220;6.920;2023-07-29T02:29:40;98333.41;;;21.58;57.13
62833;BME280;48891;49.220;6.920;2023-07-29T02:32:05;98340.47;;;21.59;57.27
62833;BME280;48891;49.220;6.920;2023-07-29T02:34:30;98342.13;;;21.60;57.27
62833;BME280;48891;49.220;6.920;2023-07-29T02:36:56;98341.28;;;21.59;57.18
62833;BME280;48891;49.220;6.920;2023-07-29T02:39:21;98334.28;;;21.58;57.10
62833;BME280;48891;49.220;6.920;2023-07-29T02:41:46;98333.41;;;21.58;57.14
62833;BME280;48891;49.220;6.920;2023-07-29T02:44:12;98331.41;;;21.60;57.40
62833;BME280;48891;49.220;6.920;2023-07-29T02:46:37;98323.34;;;21.60;57.20
62833;BME280;48891;49.220;6.920;2023-07-29T02:49:02;98325.19;;;21.59;56.98
62833;BME280;48891;49.220;6.920;2023-07-29T02:51:28;98318.00;;;21.52;57.17
62833;BME280;48891;49.220;6.920;2023-07-29T02:53:53;98329.56;;;21.60;57.05
62833;BME280;48891;49.220;6.920;2023-07-29T02:56:18;98339.63;;;21.58;57.39
62833;BME280;48891;49.220;6.920;2023-07-29T02:58:44;98337.63;;;21.60;57.30
62833;BME280;48891;49.220;6.920;2023-07-29T03:01:09;98325.19;;;21.59;56.91
62833;BME280;48891;49.220;6.920;2023-07-29T03:03:34;98330.72;;;21.58;57.10
62833;BME280;48891;49.220;6.920;2023-07-29T03:06:01;98326.91;;;21.60;56.91
62833;BME280;48891;49.220;6.920;2023-07-29T03:08:27;98321.84;;;21.57;57.13
62833;BME280;48891;49.220;6.920;2023-07-29T03:10:52;98329.75;;;21.59;56.99
62833;BME280;48891;49.220;6.920;2023-07-29T03:13:17;98328.72;;;21.60;57.09
62833;BME280;48891;49.220;6.920;2023-07-29T03:15:42;98325.19;;;21.59;57.13
62833;BME280;48891;49.220;6.920;2023-07-29T03:18:08;98315.31;;;21.60;57.27
62833;BME280;48891;49.220;6.920;2023-07-29T03:20:33;98316.16;;;21.60;57.44
62833;BME280;48891;49.220;6.920;2023-07-29T03:22:58;98307.25;;;21.60;57.02
62833;BME280;48891;49.220;6.920;2023-07-29T03:25:23;98309.94;;;21.60;57.38
62833;BME280;48891;49.220;6.920;2023-07-29T03:27:49;98303.75;;;21.59;57.17
62833;BME280;48891;49.220;6.920;2023-07-29T03:30:14;98305.44;;;21.60;57.09
62833;BME280;48891;49.220;6.920;2023-07-29T03:32:43;98314.47;;;21.59;57.25
62833;BME280;48891;49.220;6.920;2023-07-29T03:35:09;98312.13;;;21.56;57.35
62833;BME280;48891;49.220;6.920;2023-07-29T03:37:34;98308.28;;;21.59;57.49
62833;BME280;48891;49.220;6.920;2023-07-29T03:39:59;98309.13;;;21.59;57.47
62833;BME280;48891;49.220;6.920;2023-07-29T03:42:24;98302.09;;;21.58;57.38
62833;BME280;48891;49.220;6.920;2023-07-29T03:44:50;98301.06;;;21.59;57.25
62833;BME280;48891;49.220;6.920;2023-07-29T03:47:15;98299.22;;;21.60;57.42
62833;BME280;48891;49.220;6.920;2023-07-29T03:49:40;98295.69;;;21.59;57.27
62833;BME280;48891;49.220;6.920;2023-07-29T03:52:05;98289.84;;;21.56;57.33
62833;BME280;48891;49.220;6.920;2023-07-29T03:54:31;98289.34;;;21.60;57.19
62833;BME280;48891;49.220;6.920;2023-07-29T03:56:56;98284.16;;;21.59;57.29
62833;BME280;48891;49.220;6.920;2023-07-29T03:59:21;98287.66;;;21.59;57.52
62833;BME280;48891;49.220;6.920;2023-07-29T04:01:47;98289.50;;;21.59;57.40
62833;BME280;48891;49.220;6.920;2023-07-29T04:04:12;98289.50;;;21.59;57.06
62833;BME280;48891;49.220;6.920;2023-07-29T04:06:37;98280.63;;;21.58;57.39
62833;BME280;48891;49.220;6.920;2023-07-29T04:09:02;98290.34;;;21.59;57.17
62833;BME280;48891;49.220;6.920;2023-07-29T04:11:27;98273.59;;;21.49;57.31
62833;BME280;48891;49.220;6.920;2023-07-29T04:13:53;98301.06;;;21.59;57.35
62833;BME280;48891;49.220;6.920;2023-07-29T04:16:18;98290.88;;;21.55;57.42
62833;BME280;48891;49.220;6.920;2023-07-29T04:18:43;98302.91;;;21.59;57.60
62833;BME280;48891;49.220;6.920;2023-07-29T04:21:08;98276.09;;;21.42;57.24
62833;BME280;48891;49.220;6.920;2023-07-29T04:23:34;98295.88;;;21.58;57.22
62833;BME280;48891;49.220;6.920;2023-07-29T04:25:59;98282.50;;;21.50;57.34
62833;BME280;48891;49.220;6.920;2023-07-29T04:28:24;98295.69;;;21.59;57.45
62833;BME280;48891;49.220;6.920;2023-07-29T04:30:49;98297.56;;;21.59;57.32
62833;BME280;48891;49.220;6.920;2023-07-29T04:33:14;98300.41;;;21.57;57.02
62833;BME280;48891;49.220;6.920;2023-07-29T04:35:40;98306.44;;;21.59;57.71
62833;BME280;48891;49.220;6.920;2023-07-29T04:38:05;98307.47;;;21.58;57.29
62833;BME280;48891;49.220;6.920;2023-07-29T04:40:33;98282.28;;;21.51;57.58
62833;BME280;48891;49.220;6.920;2023-07-29T04:43:00;98276.63;;;21.46;57.44
62833;BME280;48891;49.220;6.920;2023-07-29T04:45:28;98302.91;;;21.59;57.40
62833;BME280;48891;49.220;6.920;2023-07-29T04:47:53;98304.56;;;21.60;57.49
62833;BME280;48891;49.220;6.920;2023-07-29T04:50:19;98302.09;;;21.58;57.22
62833;BME280;48891;49.220;6.920;2023-07-29T04:52:44;98300.41;;;21.57;57.33
62833;BME280;48891;49.220;6.920;2023-07-29T04:55:09;98307.78;;;21.55;57.65
62833;BME280;48891;49.220;6.920;2023-07-29T04:57:34;98324.38;;;21.59;57.55
62833;BME280;48891;49.220;6.920;2023-07-29T04:59:59;98326.22;;;21.58;57.65
62833;BME280;48891;49.220;6.920;2023-07-29T05:02:25;98321.84;;;21.57;57.26
62833;BME280;48891;49.220;6.920;2023-07-29T05:04:50;98313.81;;;21.57;57.50
62833;BME280;48891;49.220;6.920;2023-07-29T05:07:15;98314.63;;;21.58;57.48
62833;BME280;48891;49.220;6.920;2023-07-29T05:09:40;98309.28;;;21.58;57.38
62833;BME280;48891;49.220;6.920;2023-07-29T05:12:06;98310.97;;;21.59;57.34
62833;BME280;48891;49.220;6.920;2023-07-29T05:14:31;98310.13;;;21.58;57.40
62833;BME280;48891;49.220;6.920;2023-07-29T05:16:56;98312.63;;;21.60;57.40
62833;BME280;48891;49.220;6.920;2023-07-29T05:19:21;98310.13;;;21.58;57.86
62833;BME280;48891;49.220;6.920;2023-07-29T05:21:47;98314.47;;;21.59;57.60
62833;BME280;48891;49.220;6.920;2023-07-29T05:24:12;98320.66;;;21.60;57.46
62833;BME280;48891;49.220;6.920;2023-07-29T05:26:37;98330.56;;;21.59;57.63
62833;BME280;48891;49.220;6.920;2023-07-29T05:29:03;98329.91;;;21.57;57.47
62833;BME280;48891;49.220;6.920;2023-07-29T05:31:28;98326.41;;;21.57;57.73
62833;BME280;48891;49.220;6.920;2023-07-29T05:33:54;98329.75;;;21.59;57.39
62833;BME280;48891;49.220;6.920;2023-07-29T05:36:19;98330.56;;;21.59;57.66
62833;BME280;48891;49.220;6.920;2023-07-29T05:38:44;98339.44;;;21.60;57.75
62833;BME280;48891;49.220;6.920;2023-07-29T05:41:09;98339.63;;;21.58;57.65
62833;BME280;48891;49.220;6.920;2023-07-29T05:43:35;98343.97;;;21.59;57.54
62833;BME280;48891;49.220;6.920;2023-07-29T05:46:00;98346.66;;;21.59;57.85
62833;BME280;48891;49.220;6.920;2023-07-29T05:48:25;98350.38;;;21.58;57.39
62833;BME280;48891;49.220;6.920;2023-07-29T05:50:50;98348.50;;;21.59;57.66
62833;BME280;48891;49.220;6.920;2023-07-29T05:53:16;98357.38;;;21.59;57.66
62833;BME280;48891;49.220;6.920;2023-07-29T05:55:41;98352.03;;;21.59;57.47
62833;BME280;48891;49.220;6.920;2023-07-29T05:58:06;98353.88;;;21.59;57.70
62833;BME280;48891;49.220;6.920;2023-07-29T06:00:31;98350.38;;;21.58;57.35
62833;BME280;48891;49.220;6.920;2023-07-29T06:02:57;98359.91;;;21.61;57.20
62833;BME280;48891;49.220;6.920;2023-07-29T06:05:22;98353.53;;;21.54;57.52
62833;BME280;48891;49.220;6.920;2023-07-29T06:07:47;98367.97;;;21.61;57.55
62833;BME280;48891;49.220;6.920;2023-07-29T06:10:14;98368.13;;;21.59;57.31
62833;BME280;48891;49.220;6.920;2023-07-29T06:12:39;98373.31;;;21.61;57.33
62833;BME280;48891;49.220;6.920;2023-07-29T06:15:05;98362.91;;;21.58;57.54
62833;BME280;48891;49.220;6.920;2023-07-29T06:17:30;98379.50;;;21.61;57.21
62833;BME280;48891;49.220;6.920;2023-07-29T06:19:55;98367.97;;;21.61;57.22
62833;BME280;48891;49.220;6.920;2023-07-29T06:22:21;98382.19;;;21.61;57.45
62833;BME280;48891;49.220;6.920;2023-07-29T06:24:46;98381.38;;;21.61;57.25
62833;BME280;48891;49.220;6.920;2023-07-29T06:27:11;98352.72;;;21.53;57.52
62833;BME280;48891;49.220;6.920;2023-07-29T06:29:36;98365.94;;;21.63;57.64
62833;BME280;48891;49.220;6.920;2023-07-29T06:32:02;98366.09;;;21.61;57.37
62833;BME280;48891;49.220;6.920;2023-07-29T06:34:27;98358.06;;;21.61;57.50
62833;BME280;48891;49.220;6.920;2023-07-29T06:36:52;98370.47;;;21.63;57.55
62833;BME280;48891;49.220;6.920;2023-07-29T06:39:17;98369.81;;;21.60;57.88
62833;BME280;48891;49.220;6.920;2023-07-29T06:41:42;98380.38;;;21.62;57.60
62833;BME280;48891;49.220;6.920;2023-07-29T06:44:08;98391.94;;;21.63;57.92
62833;BME280;48891;49.220;6.920;2023-07-29T06:46:33;98383.06;;;21.62;57.79
62833;BME280;48891;49.220;6.920;2023-07-29T06:48:58;98385.91;;;21.60;57.97
62833;BME280;48891;49.220;6.920;2023-07-29T06:51:24;98391.09;;;21.62;57.71
62833;BME280;48891;49.220;6.920;2023-07-29T06:53:49;98388.41;;;21.62;57.46
62833;BME280;48891;49.220;6.920;2023-07-29T06:56:14;98399.97;;;21.63;57.97
62833;BME280;48891;49.220;6.920;2023-07-29T06:58:39;98389.25;;;21.63;58.01
62833;BME280;48891;49.220;6.920;2023-07-29T07:01:04;98399.97;;;21.63;57.81
62833;BME280;48891;49.220;6.920;2023-07-29T07:03:30;98404.50;;;21.62;57.63
62833;BME280;48891;49.220;6.920;2023-07-29T07:05:55;98410.72;;;21.63;57.86
62833;BME280;48891;49.220;6.920;2023-07-29T07:08:20;98404.31;;;21.64;57.71
62833;BME280;48891;49.220;6.920;2023-07-29T07:10:47;98398.94;;;21.64;57.63
62833;BME280;48891;49.220;6.920;2023-07-29T07:13:12;98386.72;;;21.61;57.62
62833;BME280;48891;49.220;6.920;2023-07-29T07:15:37;98395.28;;;21.65;57.53
62833;BME280;48891;49.220;6.920;2023-07-29T07:18:03;98387.22;;;21.65;57.70
62833;BME280;48891;49.220;6.920;2023-07-29T07:20:28;98378.34;;;21.64;57.60
62833;BME280;48891;49.220;6.920;2023-07-29T07:22:54;98378.34;;;21.64;57.62
62833;BME280;48891;49.220;6.920;2023-07-29T07:25:19;98380.69;;;21.67;57.87
62833;BME280;48891;49.220;6.920;2023-07-29T07:27:44;98388.72;;;21.67;57.96
62833;BME280;48891;49.220;6.920;2023-07-29T07:30:10;98398.63;;;21.67;57.93
62833;BME280;48891;49.220;6.920;2023-07-29T07:32:35;98409.34;;;21.67;57.91
62833;BME280;48891;49.220;6.920;2023-07-29T07:35:00;98392.44;;;21.66;57.93
62833;BME280;48891;49.220;6.920;2023-07-29T07:37:25;98393.09;;;21.68;57.64
62833;BME280;48891;49.220;6.920;2023-07-29T07:39:51;98387.22;;;21.65;57.93
62833;BME280;48891;49.220;6.920;2023-07-29T07:42:16;98391.41;;;21.67;57.56
62833;BME280;48891;49.220;6.920;2023-07-29T07:44:41;98391.41;;;21.67;57.98
62833;BME280;48891;49.220;6.920;2023-07-29T07:47:06;98394.97;;;21.68;57.76
62833;BME280;48891;49.220;6.920;2023-07-29T07:49:32;98385.06;;;21.68;57.81
62833;BME280;48891;49.220;6.920;2023-07-29T07:51:57;98381.53;;;21.68;58.05
62833;BME280;48891;49.220;6.920;2023-07-29T07:54:22;98381.53;;;21.68;57.70
62833;BME280;48891;49.220;6.920;2023-07-29T07:56:47;98384.88;;;21.70;57.83
62833;BME280;48891;49.220;6.920;2023-07-29T07:59:13;98377.84;;;21.60;57.68
62833;BME280;48891;49.220;6.920;2023-07-29T08:01:38;98394.78;;;21.69;57.88
62833;BME280;48891;49.220;6.920;2023-07-29T08:04:04;98382.19;;;21.61;57.65
62833;BME280;48891;49.220;6.920;2023-07-29T08:06:30;98402.66;;;21.71;57.76
62833;BME280;48891;49.220;6.920;2023-07-29T08:08:56;98400.81;;;21.71;57.52
62833;BME280;48891;49.220;6.920;2023-07-29T08:11:21;98408.88;;;21.71;57.55
62833;BME280;48891;49.220;6.920;2023-07-29T08:13:47;98403.50;;;21.71;57.87
62833;BME280;48891;49.220;6.920;2023-07-29T08:16:12;98403.31;;;21.65;57.67
62833;BME280;48891;49.220;6.920;2023-07-29T08:18:37;98408.72;;;21.73;57.68
62833;BME280;48891;49.220;6.920;2023-07-29T08:21:03;98401.50;;;21.73;57.41
62833;BME280;48891;49.220;6.920;2023-07-29T08:23:30;98406.03;;;21.73;57.56
62833;BME280;48891;49.220;6.920;2023-07-29T08:25:57;98397.47;;;21.69;57.56
62833;BME280;48891;49.220;6.920;2023-07-29T08:28:23;98400.66;;;21.73;57.68
62833;BME280;48891;49.220;6.920;2023-07-29T08:30:48;98401.66;;;21.72;57.58
62833;BME280;48891;49.220;6.920;2023-07-29T08:33:14;98383.72;;;21.64;57.58
62833;BME280;48891;49.220;6.920;2023-07-29T08:35:40;98387.91;;;21.75;57.44
62833;BME280;48891;49.220;6.920;2023-07-29T08:38:05;98388.75;;;21.75;57.51
62833;BME280;48891;49.220;6.920;2023-07-29T08:40:31;98389.56;;;21.76;57.69
62833;BME280;48891;49.220;6.920;2023-07-29T08:42:58;98384.19;;;21.76;57.47
62833;BME280;48891;49.220;6.920;2023-07-29T08:45:26;98362.25;;;21.56;57.60
62833;BME280;48891;49.220;6.920;2023-07-29T08:47:54;98393.09;;;21.76;57.34
62833;BME280;48891;49.220;6.920;2023-07-29T08:50:22;98388.91;;;21.74;57.27
62833;BME280;48891;49.220;6.920;2023-07-29T08:52:49;98399.97;;;21.79;57.19
62833;BME280;48891;49.220;6.920;2023-07-29T08:55:14;98406.34;;;21.78;57.18
62833;BME280;48891;49.220;6.920;2023-07-29T08:57:40;98405.34;;;21.79;57.23
62833;BME280;48891;49.220;6.920;2023-07-29T09:00:06;98420.78;;;21.77;57.67
62833;BME280;48891;49.220;6.920;2023-07-29T09:02:31;98420.59;;;21.78;57.52
62833;BME280;48891;49.220;6.920;2023-07-29T09:04:57;98425.13;;;21.78;57.61
62833;BME280;48891;49.220;6.920;2023-07-29T09:07:22;98428.97;;;21.75;57.56
62833;BME280;48891;49.220;6.920;2023-07-29T09:09:47;98432.31;;;21.77;57.46
62833;BME280;48891;49.220;6.920;2023-07-29T09:12:12;98428.81;;;21.77;57.43
62833;BME280;48891;49.220;6.920;2023-07-29T09:14:38;98429.31;;;21.80;57.11
62833;BME280;48891;49.220;6.920;2023-07-29T09:17:07;98407.88;;;21.64;57.31
62833;BME280;48891;49.220;6.920;2023-07-29T09:19:33;98435.50;;;21.81;57.08
62833;BME280;48891;49.220;6.920;2023-07-29T09:21:58;98438.19;;;21.81;57.20
62833;BME280;48891;49.220;6.920;2023-07-29T09:24:23;98450.63;;;21.82;57.20
62833;BME280;48891;49.220;6.920;2023-07-29T09:26:49;98438.03;;;21.83;56.95
62833;BME280;48891;49.220;6.920;2023-07-29T09:29:15;98442.56;;;21.82;57.41
62833;BME280;48891;49.220;6.920;2023-07-29T09:31:40;98453.31;;;21.82;57.22
62833;BME280;48891;49.220;6.920;2023-07-29T09:34:05;98442.91;;;21.79;57.22
62833;BME280;48891;49.220;6.920;2023-07-29T09:36:32;98437.84;;;21.76;57.03
62833;BME280;48891;49.220;6.920;2023-07-29T09:38:58;98451.28;;;21.84;57.09
62833;BME280;48891;49.220;6.920;2023-07-29T09:41:27;98452.13;;;21.85;57.08
62833;BME280;48891;49.220;6.920;2023-07-29T09:44:01;98452.13;;;21.85;57.18
62833;BME280;48891;49.220;6.920;2023-07-29T09:46:35;98455.47;;;21.87;57.02
62833;BME280;48891;49.220;6.920;2023-07-29T09:49:04;98451.78;;;21.88;56.95
62833;BME280;48891;49.220;6.920;2023-07-29T09:51:30;98449.09;;;21.88;57.10
62833;BME280;48891;49.220;6.920;2023-07-29T09:53:55;98436.38;;;21.82;57.08
62833;BME280;48891;49.220;6.920;2023-07-29T09:56:27;98469.22;;;21.92;57.09
62833;BME280;48891;49.220;6.920;2023-07-29T09:58:52;98452.97;;;21.93;57.05
62833;BME280;48891;49.220;6.920;2023-07-29T10:01:20;98449.59;;;21.91;56.92
62833;BME280;48891;49.220;6.920;2023-07-29T10:03:46;98451.13;;;21.94;56.83
62833;BME280;48891;49.220;6.920;2023-07-29T10:06:14;98423.63;;;21.75;57.12
62833;BME280;48891;49.220;6.920;2023-07-29T10:08:40;98460.19;;;21.93;56.97
62833;BME280;48891;49.220;6.920;2023-07-29T10:11:08;98451.97;;;21.94;56.82
62833;BME280;48891;49.220;6.920;2023-07-29T10:13:33;98450.94;;;21.95;56.92
62833;BME280;48891;49.220;6.920;2023-07-29T10:15:59;98456.31;;;21.95;57.14
62833;BME280;48891;49.220;6.920;2023-07-29T10:18:25;98455.47;;;21.95;56.90
62833;BME280;48891;49.220;6.920;2023-07-29T10:20:52;98457.34;;;21.94;57.16
62833;BME280;48891;49.220;6.920;2023-07-29T10:23:18;98446.44;;;21.96;57.17
62833;BME280;48891;49.220;6.920;2023-07-29T10:25:50;98438.38;;;21.88;57.00
62833;BME280;48891;49.220;6.920;2023-07-29T10:28:20;98442.06;;;21.95;56.92
62833;BME280;48891;49.220;6.920;2023-07-29T10:30:50;98412.88;;;21.75;56.85
62833;BME280;48891;49.220;6.920;2023-07-29T10:33:16;98446.28;;;21.97;56.71
62833;BME280;48891;49.220;6.920;2023-07-29T10:35:42;98423.13;;;21.80;56.93
62833;BME280;48891;49.220;6.920;2023-07-29T10:38:07;98445.91;;;22.00;56.75
62833;BME280;48891;49.220;6.920;2023-07-29T10:40:47;98452.13;;;22.01;57.00
62833;BME280;48891;49.220;6.920;2023-07-29T10:43:19;98443.06;;;22.02;56.77
62833;BME280;48891;49.220;6.920;2023-07-29T10:45:44;98435.00;;;22.02;56.57
62833;BME280;48891;49.220;6.920;2023-07-29T10:53:48;98437.53;;;22.04;56.78
62833;BME280;48891;49.220;6.920;2023-07-29T10:56:24;98433.16;;;22.03;56.82
62833;BME280;48891;49.220;6.920;2023-07-29T10:58:51;98432.31;;;22.02;56.62
62833;BME280;48891;49.220;6.920;2023-07-29T11:01:27;98446.56;;;22.03;56.69
62833;BME280;48891;49.220;6.920;2023-07-29T11:12:41;98444.75;;;22.03;56.82
62833;BME280;48891;49.220;6.920;2023-07-29T11:17:35;98450.94;;;22.04;57.06
62833;BME280;48891;49.220;6.920;2023-07-29T11:20:01;98435.03;;;21.94;56.92
62833;BME280;48891;49.220;6.920;2023-07-29T11:22:27;98440.22;;;22.04;56.81
62833;BME280;48891;49.220;6.920;2023-07-29T11:24:53;98436.69;;;22.03;57.33
62833;BME280;48891;49.220;6.920;2023-07-29T11:27:19;98444.75;;;22.03;56.77
62833;BME280;48891;49.220;6.920;2023-07-29T11:29:44;98441.91;;;22.05;56.60
62833;BME280;48891;49.220;6.920;2023-07-29T11:32:09;98437.38;;;22.05;56.60
62833;BME280;48891;49.220;6.920;2023-07-29T11:34:35;98440.22;;;22.04;56.89
62833;BME280;48891;49.220;6.920;2023-07-29T11:37:00;98428.47;;;22.05;56.58
62833;BME280;48891;49.220;6.920;2023-07-29T11:39:25;98436.53;;;22.05;56.52
62833;BME280;48891;49.220;6.920;2023-07-29T11:41:51;98437.38;;;22.05;56.77
62833;BME280;48891;49.220;6.920;2023-07-29T11:44:17;98439.06;;;22.06;56.73
62833;BME280;48891;49.220;6.920;2023-07-29T11:46:43;98413.72;;;21.92;56.56
62833;BME280;48891;49.220;6.920;2023-07-29T11:49:08;98424.28;;;22.02;56.43
62833;BME280;48891;49.220;6.920;2023-07-29T11:51:33;98427.44;;;22.06;56.79
62833;BME280;48891;49.220;6.920;2023-07-29T11:53:59;98403.97;;;21.83;56.76
62833;BME280;48891;49.220;6.920;2023-07-29T11:56:25;98432.81;;;22.06;56.84
62833;BME280;48891;49.220;6.920;2023-07-29T11:58:50;98437.19;;;22.07;56.57
62833;BME280;48891;49.220;6.920;2023-07-29T12:01:16;98431.81;;;22.07;56.41
62833;BME280;48891;49.220;6.920;2023-07-29T12:03:42;98432.00;;;22.05;56.42
62833;BME280;48891;49.220;6.920;2023-07-29T12:06:08;98435.34;;;22.07;56.44
62833;BME280;48891;49.220;6.920;2023-07-29T12:08:34;98433.69;;;22.06;56.66
62833;BME280;48891;49.220;6.920;2023-07-29T12:10:59;98427.44;;;22.06;56.68
62833;BME280;48891;49.220;6.920;2023-07-29T12:13:25;98431.81;;;22.07;56.82
62833;BME280;48891;49.220;6.920;2023-07-29T12:15:50;98436.38;;;22.06;56.72
62833;BME280;48891;49.220;6.920;2023-07-29T12:18:15;98421.09;;;22.07;56.71
62833;BME280;48891;49.220;6.920;2023-07-29T12:20:41;98425.44;;;22.08;56.50
62833;BME280;48891;49.220;6.920;2023-07-29T12:23:06;98412.22;;;22.06;56.50
62833;BME280;48891;49.220;6.920;2023-07-29T12:25:31;98420.44;;;22.05;56.59
62833;BME280;48891;49.220;6.920;2023-07-29T12:28:04;98413.69;;;22.00;56.84
62833;BME280;48891;49.220;6.920;2023-07-29T12:30:30;98427.44;;;22.06;56.26
62833;BME280;48891;49.220;6.920;2023-07-29T12:32:55;98440.72;;;22.07;56.35
62833;BME280;48891;49.220;6.920;2023-07-29T12:35:20;98429.97;;;22.07;56.33
62833;BME280;48891;49.220;6.920;2023-07-29T12:37:45;98429.81;;;22.09;56.48
62833;BME280;48891;49.220;6.920;2023-07-29T12:40:23;98427.13;;;22.09;56.71
62833;BME280;48891;49.220;6.920;2023-07-29T12:42:49;98423.44;;;22.10;56.48
62833;BME280;48891;49.220;6.920;2023-07-29T12:45:15;98416.06;;;22.12;56.61
62833;BME280;48891;49.220;6.920;2023-07-29T12:47:41;98415.03;;;22.13;56.22
62833;BME280;48891;49.220;6.920;2023-07-29T12:50:06;98405.16;;;22.13;56.54
62833;BME280;48891;49.220;6.920;2023-07-29T12:52:31;98397.75;;;22.15;56.26
62833;BME280;48891;49.220;6.920;2023-07-29T12:54:57;98402.09;;;22.16;56.25
62833;BME280;48891;49.220;6.920;2023-07-29T12:57:22;98404.63;;;22.18;56.36
62833;BME280;48891;49.220;6.920;2023-07-29T12:59:47;98405.44;;;22.18;56.19
62833;BME280;48891;49.220;6.920;2023-07-29T13:02:12;98404.28;;;22.21;56.27
62833;BME280;48891;49.220;6.920;2023-07-29T13:04:38;98402.44;;;22.22;56.22
62833;BME280;48891;49.220;6.920;2023-07-29T13:07:03;98404.13;;;22.23;56.04
62833;BME280;48891;49.220;6.920;2023-07-29T13:09:28;98407.63;;;22.23;56.23
62833;BME280;48891;49.220;6.920;2023-07-29T13:11:53;98408.63;;;22.22;56.14